createdAt,value
2023-10-29T00:01:04.046Z,97
2023-10-29T00:11:04.141Z,97
2023-10-29T00:21:04.022Z,97
2023-10-29T00:31:04.134Z,97
2023-10-29T00:41:03.965Z,97
2023-10-29T00:51:04.034Z,98
2023-10-29T01:01:03.945Z,98
2023-10-29T01:11:03.958Z,97
2023-10-29T01:21:03.897Z,96
2023-10-29T01:31:03.954Z,97
2023-10-29T01:41:03.898Z,96
2023-10-29T01:51:04.006Z,96
2023-10-29T02:01:03.937Z,97
2023-10-29T02:11:03.888Z,97
2023-10-29T02:21:03.884Z,96
2023-10-29T02:31:03.872Z,96
2023-10-29T02:41:03.876Z,95
2023-10-29T02:51:03.916Z,95
2023-10-29T03:01:03.943Z,96
2023-10-29T03:11:03.888Z,98
2023-10-29T03:21:03.865Z,99
2023-10-29T03:31:03.955Z,98
2023-10-29T03:41:04.040Z,97
2023-10-29T03:51:03.987Z,98
2023-10-29T04:01:04.021Z,97
2023-10-29T04:11:04.120Z,98
2023-10-29T04:21:04.033Z,98
2023-10-29T04:31:04.078Z,98
2023-10-29T04:41:03.977Z,99
2023-10-29T04:51:04.120Z,97
2023-10-29T05:01:03.884Z,98
2023-10-29T05:11:03.835Z,98
2023-10-29T05:21:03.861Z,99
2023-10-29T05:31:04.001Z,99
2023-10-29T05:41:03.872Z,98
2023-10-29T05:51:03.936Z,98
2023-10-29T06:01:03.917Z,100
2023-10-29T06:11:03.841Z,100
2023-10-29T06:21:03.902Z,100
2023-10-29T06:31:03.854Z,100
2023-10-29T06:41:03.843Z,100
2023-10-29T06:51:03.858Z,100
2023-10-29T07:01:03.853Z,100
2023-10-29T07:11:03.844Z,100
2023-10-29T07:21:03.990Z,100
2023-10-29T07:31:03.823Z,100
2023-10-29T07:41:03.870Z,100
2023-10-29T07:51:03.877Z,100
2023-10-29T08:01:03.835Z,100
2023-10-29T08:11:03.828Z,100
2023-10-29T08:21:03.898Z,98
2023-10-29T08:31:03.841Z,86
2023-10-29T08:41:03.799Z,72
2023-10-29T08:51:03.837Z,64
2023-10-29T09:01:03.930Z,63
2023-10-29T09:11:03.838Z,72
2023-10-29T09:21:03.949Z,87
2023-10-29T09:31:03.903Z,97
2023-10-29T09:41:03.817Z,98
2023-10-29T09:51:04.000Z,100
2023-10-29T10:01:03.953Z,95
2023-10-29T10:11:03.771Z,97
2023-10-29T10:21:03.944Z,94
2023-10-29T10:31:03.873Z,100
2023-10-29T10:41:03.875Z,95
2023-10-29T10:51:03.986Z,97
2023-10-29T11:01:05.386Z,100
2023-10-29T11:11:03.943Z,100
2023-10-29T11:21:03.757Z,100
2023-10-29T11:31:03.783Z,96
2023-10-29T11:41:03.699Z,100
2023-10-29T11:51:03.821Z,100
2023-10-29T12:01:03.704Z,100
2023-10-29T12:11:03.672Z,100
2023-10-29T12:21:03.793Z,100
2023-10-29T12:31:03.750Z,100
2023-10-29T12:41:03.764Z,100
2023-10-29T12:51:03.805Z,100
2023-10-29T13:01:03.733Z,100
2023-10-29T13:11:03.858Z,100
2023-10-29T13:21:03.790Z,100
2023-10-29T13:31:03.873Z,100
2023-10-29T13:41:03.770Z,100
2023-10-29T13:51:03.753Z,100
2023-10-29T14:01:03.742Z,100
2023-10-29T14:11:03.844Z,100
2023-10-29T14:21:03.672Z,100
2023-10-29T14:31:03.908Z,100
2023-10-29T14:41:03.703Z,100
2023-10-29T14:51:03.854Z,100
2023-10-29T15:01:03.815Z,100
2023-10-29T15:11:03.574Z,100
2023-10-29T15:21:03.597Z,100
2023-10-29T15:31:03.556Z,100
2023-10-29T15:41:03.554Z,100
2023-10-29T15:51:03.555Z,100
2023-10-29T16:01:03.509Z,98
2023-10-29T16:11:03.507Z,97
2023-10-29T16:21:03.546Z,98
2023-10-29T16:31:03.495Z,98
2023-10-29T16:41:03.486Z,98
2023-10-29T16:51:04.131Z,96
2023-10-29T17:01:03.504Z,95
2023-10-29T17:11:03.476Z,93
2023-10-29T17:21:03.641Z,91
2023-10-29T17:31:03.507Z,90
2023-10-29T17:41:03.539Z,89
2023-10-29T17:51:03.516Z,90
2023-10-29T18:01:03.453Z,91
2023-10-29T18:11:03.424Z,91
2023-10-29T18:21:03.470Z,95
2023-10-29T18:31:03.423Z,93
2023-10-29T18:41:03.437Z,94
2023-10-29T18:51:03.466Z,97
2023-10-29T19:01:03.513Z,97
2023-10-29T19:11:03.418Z,95
2023-10-29T19:21:03.478Z,94
2023-10-29T19:41:03.558Z,96
2023-10-29T19:51:03.467Z,98
2023-10-29T20:01:03.482Z,99
2023-10-29T20:11:03.468Z,99
2023-10-29T20:21:03.602Z,99
2023-10-29T20:31:03.445Z,98
2023-10-29T20:41:03.527Z,97
2023-10-29T20:51:03.589Z,95
2023-10-29T21:01:03.498Z,95
2023-10-29T21:11:03.534Z,94
2023-10-29T21:21:03.454Z,94
2023-10-29T21:31:03.522Z,93
2023-10-29T21:41:03.441Z,91
2023-10-29T21:51:03.450Z,89
2023-10-29T22:01:03.433Z,86
2023-10-29T22:11:03.413Z,84
2023-10-29T22:21:03.439Z,82
2023-10-29T22:31:03.409Z,81
2023-10-29T22:41:03.421Z,79
2023-10-29T22:51:03.437Z,76
2023-10-29T23:01:11.880Z,74
2023-10-29T23:11:03.369Z,72
2023-10-29T23:21:03.365Z,71
2023-10-29T23:31:03.405Z,70
2023-10-29T23:41:03.348Z,70
2023-10-29T23:51:03.403Z,69
